Time;durP1;ratioP1;P1;durP2;ratioP2;P2;SDS_P1;SDS_P2;PMS_P1;PMS_P2;Temp;Humidity;BMP_temperature;BMP_pressure;BME280_temperature;BME280_humidity;BME280_pressure;Samples;Min_cycle;Max_cycle;Signal;HPM_P1;HPM_P2
2023/11/16 00:02:21;;;;;;;4.13;1.27;;;10.40;99.90;;;;;;5081536;28;20817;-36
2023/11/16 00:04:48;;;;;;;6.30;1.70;;;10.40;99.90;;;;;;5082722;28;20074;-37
2023/11/16 00:07:14;;;;;;;5.80;1.90;;;10.40;99.90;;;;;;5080326;28;20460;-37
2023/11/16 00:09:39;;;;;;;5.03;1.52;;;10.40;99.90;;;;;;5081495;28;20038;-37
2023/11/16 00:12:06;;;;;;;5.35;1.83;;;10.40;99.90;;;;;;5080984;28;20107;-37
2023/11/16 00:14:32;;;;;;;8.07;1.83;;;10.30;99.90;;;;;;5080539;28;20043;-37
2023/11/16 00:17:00;;;;;;;5.32;1.42;;;10.30;99.90;;;;;;5081438;28;20032;-37
2023/11/16 00:19:27;;;;;;;6.47;2.00;;;10.30;99.90;;;;;;5081188;28;20027;-37
2023/11/16 00:21:53;;;;;;;4.45;1.52;;;10.40;99.90;;;;;;5080635;28;20024;-38
2023/11/16 00:24:19;;;;;;;4.13;1.67;;;10.30;99.90;;;;;;5080371;28;20097;-39
2023/11/16 00:26:50;;;;;;;6.05;1.48;;;10.30;99.90;;;;;;5081360;28;20580;-38
2023/11/16 00:29:16;;;;;;;4.78;1.52;;;10.30;99.90;;;;;;5079981;28;20106;-37
2023/11/16 00:31:42;;;;;;;7.25;1.65;;;10.40;99.90;;;;;;5081847;28;20016;-37
2023/11/16 00:34:07;;;;;;;3.88;1.30;;;10.40;99.90;;;;;;5080771;28;20030;-36
2023/11/16 00:36:33;;;;;;;5.03;1.60;;;10.40;99.90;;;;;;5080645;28;20031;-38
2023/11/16 00:38:59;;;;;;;3.20;1.10;;;10.40;99.90;;;;;;5081093;28;20024;-37
2023/11/16 00:41:25;;;;;;;6.35;1.67;;;10.40;99.90;;;;;;5079998;28;20061;-36
2023/11/16 00:43:50;;;;;;;2.88;1.05;;;10.40;99.90;;;;;;5080964;28;20030;-37
2023/11/16 00:46:16;;;;;;;5.03;1.48;;;10.40;99.90;;;;;;5080770;28;20031;-37
2023/11/16 00:48:45;;;;;;;3.53;1.10;;;10.40;99.90;;;;;;5080216;28;20048;-36
2023/11/16 00:51:12;;;;;;;4.07;1.27;;;10.40;99.90;;;;;;5080323;28;20103;-37
2023/11/16 00:53:42;;;;;;;6.32;1.77;;;10.50;99.90;;;;;;5081263;28;20085;-36
2023/11/16 00:56:11;;;;;;;5.00;1.20;;;10.40;99.90;;;;;;5081800;28;20028;-36
2023/11/16 00:58:38;;;;;;;4.20;1.20;;;10.40;99.90;;;;;;5081291;28;20528;-37
2023/11/16 01:01:05;;;;;;;3.70;1.20;;;10.40;99.90;;;;;;5080084;28;20365;-38
2023/11/16 01:03:31;;;;;;;4.95;1.20;;;10.50;99.90;;;;;;5080045;28;21443;-37
2023/11/16 01:06:00;;;;;;;5.07;1.63;;;10.50;99.90;;;;;;5080594;28;20035;-37
2023/11/16 01:08:29;;;;;;;3.80;1.25;;;10.50;99.90;;;;;;5080683;28;20028;-37
2023/11/16 01:10:56;;;;;;;3.53;1.25;;;10.40;99.90;;;;;;5079587;28;20083;-36
2023/11/16 01:13:28;;;;;;;6.53;1.50;;;10.40;99.90;;;;;;5080631;28;20101;-38
2023/11/16 01:15:57;;;;;;;;;;;10.40;99.90;;;;;;5080844;28;20287;-37
2023/11/16 01:18:26;;;;;;;7.18;1.50;;;10.30;99.90;;;;;;5080744;28;20222;-37
2023/11/16 01:20:57;;;;;;;3.03;1.45;;;10.30;99.90;;;;;;5081450;28;20073;-37
2023/11/16 01:23:25;;;;;;;4.03;1.58;;;10.20;99.90;;;;;;5078930;28;20138;-37
2023/11/16 01:25:54;;;;;;;5.22;1.38;;;10.20;99.90;;;;;;5079751;28;20554;-37
2023/11/16 01:28:26;;;;;;;6.47;1.50;;;10.10;99.90;;;;;;5059972;28;20028;-37
2023/11/16 01:30:52;;;;;;;;;;;10.10;99.90;;;;;;5075490;28;20130;-36
2023/11/16 01:33:17;;;;;;;5.15;1.58;;;10.10;99.90;;;;;;5080371;28;20034;-36
2023/11/16 01:35:44;;;;;;;4.47;1.70;;;10.10;99.90;;;;;;5080749;28;20539;-36
2023/11/16 01:38:12;;;;;;;3.33;1.55;;;10.10;99.90;;;;;;5080132;28;20809;-36
2023/11/16 01:40:40;;;;;;;4.30;1.63;;;10.10;99.90;;;;;;5082861;28;20028;-37
2023/11/16 01:43:06;;;;;;;3.80;1.33;;;10.00;99.90;;;;;;5083999;28;20039;-36
2023/11/16 01:45:33;;;;;;;3.58;1.25;;;10.00;99.90;;;;;;5082744;28;20036;-37
2023/11/16 01:48:02;;;;;;;4.18;1.30;;;10.00;99.90;;;;;;5083534;28;20028;-36
2023/11/16 01:50:32;;;;;;;4.63;1.17;;;10.00;99.90;;;;;;5084365;28;20028;-37
2023/11/16 01:53:05;;;;;;;4.53;1.40;;;10.00;99.90;;;;;;5083496;28;20024;-36
2023/11/16 01:55:33;;;;;;;;;;;10.10;99.90;;;;;;5085072;28;20027;-36
2023/11/16 01:58:05;;;;;;;3.63;1.25;;;10.00;99.90;;;;;;5084084;28;19915;-43
2023/11/16 02:00:36;;;;;;;2.37;1.00;;;10.00;99.90;;;;;;5083713;28;20384;-37
2023/11/16 02:03:05;;;;;;;3.13;1.42;;;10.00;99.90;;;;;;5084434;28;20028;-36
2023/11/16 02:05:35;;;;;;;3.83;1.20;;;10.00;99.90;;;;;;5082837;28;20028;-36
2023/11/16 02:08:03;;;;;;;4.97;1.10;;;9.90;99.90;;;;;;5084122;28;20020;-37
2023/11/16 02:10:30;;;;;;;2.58;1.20;;;10.00;99.90;;;;;;5083492;28;20020;-37
2023/11/16 02:13:00;;;;;;;2.35;1.00;;;10.00;99.90;;;;;;5082200;28;20467;-38
2023/11/16 02:15:31;;;;;;;4.18;1.30;;;10.00;99.90;;;;;;5084027;28;20058;-37
2023/11/16 02:17:57;;;;;;;2.83;1.23;;;10.00;99.90;;;;;;5083812;28;20139;-36
2023/11/16 02:20:26;;;;;;;1.75;0.88;;;10.00;99.90;;;;;;5083064;28;20024;-37
2023/11/16 02:22:54;;;;;;;3.13;1.30;;;10.00;99.90;;;;;;5083796;28;20050;-37
2023/11/16 02:25:20;;;;;;;3.75;1.38;;;10.00;99.90;;;;;;5082690;28;20021;-36
2023/11/16 02:27:46;;;;;;;3.47;1.40;;;10.00;99.90;;;;;;5082920;28;20031;-37
2023/11/16 02:30:12;;;;;;;2.80;1.15;;;10.00;99.90;;;;;;5083172;28;20421;-36
2023/11/16 02:32:41;;;;;;;4.80;1.38;;;9.90;99.90;;;;;;5084009;28;20056;-37
2023/11/16 02:35:10;;;;;;;3.83;1.45;;;10.00;99.90;;;;;;5082800;28;20029;-35
2023/11/16 02:37:35;;;;;;;2.35;1.30;;;10.00;99.90;;;;;;5083252;28;20020;-35
2023/11/16 02:40:01;;;;;;;2.22;1.30;;;10.00;99.90;;;;;;5083342;28;20096;-37
2023/11/16 02:42:29;;;;;;;3.13;1.38;;;10.00;99.90;;;;;;5082537;28;20693;-37
2023/11/16 02:44:57;;;;;;;3.78;1.80;;;10.00;99.90;;;;;;5083448;28;20657;-37
2023/11/16 02:47:24;;;;;;;3.90;1.45;;;10.00;99.90;;;;;;5082454;28;20032;-37
2023/11/16 02:49:51;;;;;;;4.38;1.33;;;10.00;99.90;;;;;;5071548;28;20107;-39
2023/11/16 02:52:16;;;;;;;2.58;1.50;;;10.00;99.90;;;;;;5063188;28;20054;-38
2023/11/16 02:54:42;;;;;;;4.75;2.15;;;9.90;99.90;;;;;;5074017;28;20029;-37
2023/11/16 02:57:10;;;;;;;4.68;1.83;;;9.90;99.90;;;;;;5064037;28;20065;-37
2023/11/16 02:59:36;;;;;;;4.90;1.80;;;9.90;99.90;;;;;;5074631;28;20047;-37
2023/11/16 03:02:04;;;;;;;5.35;1.55;;;9.90;99.90;;;;;;5062504;28;20697;-38
2023/11/16 03:04:30;;;;;;;4.68;2.45;;;9.90;99.90;;;;;;5075532;28;20119;-38
2023/11/16 03:06:56;;;;;;;2.25;1.70;;;9.90;99.90;;;;;;5062548;28;20028;-37
2023/11/16 03:09:22;;;;;;;5.05;1.83;;;9.90;99.90;;;;;;5074353;28;20031;-38
2023/11/16 03:11:47;;;;;;;4.10;1.80;;;9.90;99.90;;;;;;5062943;28;20040;-37
2023/11/16 03:14:13;;;;;;;3.00;1.60;;;9.80;99.90;;;;;;5066319;28;20405;-36
2023/11/16 03:16:45;;;;;;;3.08;1.60;;;9.90;99.90;;;;;;5079907;28;20031;-36
2023/11/16 03:19:13;;;;;;;2.40;1.83;;;9.90;99.90;;;;;;5074216;28;20103;-37
2023/11/16 03:21:39;;;;;;;3.55;1.90;;;9.90;99.90;;;;;;5079112;28;20035;-36
2023/11/16 03:24:05;;;;;;;2.55;1.50;;;9.90;99.90;;;;;;5075597;28;20025;-37
2023/11/16 03:26:31;;;;;;;3.22;1.60;;;9.90;99.90;;;;;;5075665;28;20035;-36
2023/11/16 03:28:59;;;;;;;1.40;1.27;;;9.90;99.90;;;;;;5077925;28;20323;-37
2023/11/16 03:31:25;;;;;;;2.10;1.60;;;9.90;99.90;;;;;;5070209;28;20033;-37
2023/11/16 03:33:50;;;;;;;2.40;1.40;;;9.90;99.90;;;;;;5064168;28;20860;-37
2023/11/16 03:36:16;;;;;;;2.08;1.40;;;9.90;99.90;;;;;;5072806;28;20032;-37
2023/11/16 03:38:42;;;;;;;2.47;1.48;;;9.90;99.90;;;;;;5063078;28;20021;-37
2023/11/16 03:41:09;;;;;;;2.42;1.33;;;9.80;99.90;;;;;;5073344;28;20020;-37
2023/11/16 03:43:35;;;;;;;2.08;1.48;;;9.80;99.90;;;;;;5061175;28;20598;-37
2023/11/16 03:46:00;;;;;;;2.38;1.60;;;9.80;99.90;;;;;;5074126;28;20115;-36
2023/11/16 03:48:26;;;;;;;1.73;1.20;;;9.80;99.90;;;;;;5065914;28;20121;-36
2023/11/16 03:50:52;;;;;;;1.95;1.60;;;9.80;99.90;;;;;;5081369;28;20036;-37
2023/11/16 03:53:17;;;;;;;2.30;1.35;;;9.70;99.90;;;;;;5081302;28;20032;-38
2023/11/16 03:55:43;;;;;;;2.10;1.33;;;9.70;99.90;;;;;;5081430;28;20016;-37
2023/11/16 03:58:08;;;;;;;2.83;1.30;;;9.70;99.90;;;;;;5080679;28;20468;-37
2023/11/16 04:00:35;;;;;;;2.92;1.90;;;9.70;99.90;;;;;;5081000;28;20108;-37
2023/11/16 04:03:01;;;;;;;1.70;1.30;;;9.70;99.90;;;;;;5080850;28;20042;-36
2023/11/16 04:05:27;;;;;;;3.05;1.60;;;9.70;99.90;;;;;;5080732;28;20075;-36
2023/11/16 04:07:56;;;;;;;3.33;1.80;;;9.70;99.90;;;;;;5081688;28;20844;-36
2023/11/16 04:10:21;;;;;;;3.47;1.70;;;9.70;99.90;;;;;;5081413;28;20069;-37
2023/11/16 04:12:47;;;;;;;2.45;1.55;;;9.70;99.90;;;;;;5081592;28;20399;-37
2023/11/16 04:15:13;;;;;;;3.63;1.77;;;9.70;99.90;;;;;;5080965;28;20066;-36
2023/11/16 04:17:44;;;;;;;1.52;1.30;;;9.60;99.90;;;;;;5081611;28;20914;-36
2023/11/16 04:20:13;;;;;;;2.22;1.42;;;9.60;99.90;;;;;;5080765;28;20380;-37
2023/11/16 04:22:40;;;;;;;5.05;1.98;;;9.50;99.90;;;;;;5081686;28;20012;-39
2023/11/16 04:25:19;;;;;;;2.60;2.00;;;9.50;99.90;;;;;;5081327;28;20020;-36
2023/11/16 04:27:48;;;;;;;2.80;2.00;;;9.50;99.90;;;;;;5078786;28;20039;-37
2023/11/16 04:30:21;;;;;;;3.42;2.20;;;9.50;99.90;;;;;;5081506;28;20032;-37
2023/11/16 04:32:46;;;;;;;2.60;2.00;;;9.50;99.90;;;;;;5078360;28;20028;-36
2023/11/16 04:35:15;;;;;;;4.28;2.67;;;9.50;99.90;;;;;;5081449;28;20027;-37
2023/11/16 04:37:41;;;;;;;3.53;2.40;;;9.50;99.90;;;;;;5081681;28;20046;-36
2023/11/16 04:40:13;;;;;;;4.20;2.72;;;9.60;99.90;;;;;;5080826;28;20077;-37
2023/11/16 04:42:41;;;;;;;4.22;2.40;;;9.60;99.90;;;;;;5080852;28;20361;-37
2023/11/16 04:45:14;;;;;;;3.00;2.22;;;9.70;99.90;;;;;;5080842;28;20037;-36
2023/11/16 04:47:44;;;;;;;3.42;2.40;;;9.70;99.90;;;;;;5080154;28;20091;-37
2023/11/16 04:50:16;;;;;;;3.42;2.35;;;9.70;99.90;;;;;;5080393;28;20442;-37
2023/11/16 04:52:42;;;;;;;4.40;2.87;;;9.70;99.90;;;;;;5080553;28;20108;-37
2023/11/16 04:55:08;;;;;;;3.67;2.70;;;9.70;99.90;;;;;;5080305;28;20039;-37
2023/11/16 04:57:33;;;;;;;5.55;2.65;;;9.80;99.90;;;;;;5080808;28;20046;-37
2023/11/16 05:00:00;;;;;;;4.57;2.88;;;9.80;99.90;;;;;;5080432;28;20036;-37
2023/11/16 05:02:25;;;;;;;3.90;3.00;;;9.80;99.90;;;;;;5080235;28;20073;-37
2023/11/16 05:04:53;;;;;;;3.03;2.58;;;9.80;99.90;;;;;;5081039;28;20036;-38
2023/11/16 05:07:19;;;;;;;3.53;2.80;;;9.80;99.90;;;;;;5080436;28;20036;-37
2023/11/16 05:09:45;;;;;;;4.82;2.83;;;9.90;99.90;;;;;;5080633;28;20130;-37
2023/11/16 05:12:11;;;;;;;4.13;2.67;;;9.90;99.90;;;;;;5080542;28;20023;-37
2023/11/16 05:14:36;;;;;;;4.50;2.85;;;9.90;99.90;;;;;;5081771;28;20762;-37
2023/11/16 05:17:05;;;;;;;3.17;2.70;;;9.80;99.90;;;;;;5084294;28;20034;-37
2023/11/16 05:19:31;;;;;;;3.85;2.80;;;9.80;99.90;;;;;;5084589;28;20028;-37
2023/11/16 05:21:56;;;;;;;3.95;2.50;;;9.80;99.90;;;;;;5084629;28;20024;-37
2023/11/16 05:24:24;;;;;;;3.13;2.83;;;9.80;99.90;;;;;;5083767;28;20062;-37
2023/11/16 05:26:50;;;;;;;4.05;2.80;;;9.80;99.90;;;;;;5085428;28;20070;-37
2023/11/16 05:29:15;;;;;;;6.47;3.20;;;9.80;99.90;;;;;;5084000;28;20067;-37
2023/11/16 05:31:41;;;;;;;4.25;2.55;;;9.70;99.90;;;;;;5085233;28;20500;-36
2023/11/16 05:34:08;;;;;;;4.90;3.08;;;9.60;99.90;;;;;;5084074;28;20024;-37
2023/11/16 05:36:34;;;;;;;3.03;2.72;;;9.70;99.90;;;;;;5084191;28;20027;-37
2023/11/16 05:39:00;;;;;;;3.03;2.72;;;9.60;99.90;;;;;;5084211;28;20712;-37
2023/11/16 05:41:27;;;;;;;4.68;3.08;;;9.60;99.90;;;;;;5084156;28;20489;-37
2023/11/16 05:43:53;;;;;;;5.68;3.05;;;9.50;99.90;;;;;;5083963;28;20031;-37
2023/11/16 05:46:18;;;;;;;4.97;3.10;;;9.50;99.90;;;;;;5083635;28;20528;-37
2023/11/16 05:48:45;;;;;;;3.30;2.97;;;9.50;99.90;;;;;;5080128;28;20048;-37
2023/11/16 05:51:10;;;;;;;5.65;3.55;;;9.50;99.90;;;;;;5071005;28;20033;-39
2023/11/16 05:53:36;;;;;;;4.75;3.22;;;9.40;99.90;;;;;;5065501;28;20522;-37
2023/11/16 05:56:03;;;;;;;3.60;2.97;;;9.40;99.90;;;;;;5075005;28;20714;-37
2023/11/16 05:58:29;;;;;;;8.35;3.40;;;9.40;99.90;;;;;;5064001;28;20052;-37
2023/11/16 06:00:55;;;;;;;3.58;3.17;;;9.40;99.90;;;;;;5074854;28;20140;-38
2023/11/16 06:03:26;;;;;;;6.55;3.50;;;9.40;99.90;;;;;;5064713;28;20028;-36
2023/11/16 06:05:57;;;;;;;3.50;3.10;;;9.30;99.90;;;;;;5070055;28;20559;-36
2023/11/16 06:08:23;;;;;;;5.15;3.28;;;9.30;99.90;;;;;;5060566;28;20119;-36
2023/11/16 06:10:48;;;;;;;5.05;3.30;;;9.30;99.90;;;;;;5069819;28;20107;-37
2023/11/16 06:13:21;;;;;;;3.63;3.28;;;9.30;99.90;;;;;;5082395;28;20028;-37
2023/11/16 06:15:48;;;;;;;5.25;3.13;;;9.30;99.90;;;;;;5070409;28;20024;-36
2023/11/16 06:18:13;;;;;;;4.57;3.45;;;9.30;99.90;;;;;;5082273;28;20119;-36
2023/11/16 06:20:39;;;;;;;5.40;3.45;;;9.30;99.90;;;;;;5070864;28;20039;-36
2023/11/16 06:23:05;;;;;;;5.80;3.30;;;9.30;99.90;;;;;;5081932;28;20117;-42
2023/11/16 06:25:31;;;;;;;4.90;3.30;;;9.30;99.90;;;;;;5072210;28;20040;-37
2023/11/16 06:27:57;;;;;;;5.15;3.30;;;9.30;99.90;;;;;;5078075;28;20024;-36
2023/11/16 06:30:24;;;;;;;3.83;3.03;;;9.20;99.90;;;;;;5075999;28;20074;-36
2023/11/16 06:32:49;;;;;;;4.43;3.40;;;9.30;99.90;;;;;;5077063;28;20024;-37
2023/11/16 06:35:15;;;;;;;4.57;3.50;;;9.20;99.90;;;;;;5078937;28;20025;-38
2023/11/16 06:37:40;;;;;;;5.75;3.75;;;9.20;99.90;;;;;;5074639;28;20028;-36
2023/11/16 06:40:09;;;;;;;5.40;3.80;;;9.10;99.90;;;;;;5080378;28;20065;-37
2023/11/16 06:42:38;;;;;;;5.68;3.78;;;9.10;99.90;;;;;;5072178;28;20047;-38
2023/11/16 06:45:07;;;;;;;5.32;4.03;;;9.10;99.90;;;;;;5081922;28;20016;-37
2023/11/16 06:47:34;;;;;;;4.03;3.60;;;9.00;99.90;;;;;;5070044;28;20164;-38
2023/11/16 06:50:00;;;;;;;4.30;3.30;;;9.00;99.90;;;;;;5081389;28;20083;-37
2023/11/16 06:52:27;;;;;;;4.07;3.67;;;9.00;99.90;;;;;;5070239;28;20070;-37
2023/11/16 06:54:55;;;;;;;5.35;3.72;;;8.90;99.90;;;;;;5082100;28;20058;-37
2023/11/16 06:57:28;;;;;;;4.60;3.90;;;8.80;99.90;;;;;;5068771;28;20053;-37
2023/11/16 06:59:54;;;;;;;5.38;3.95;;;8.80;99.90;;;;;;5082923;28;20028;-38
2023/11/16 07:02:21;;;;;;;5.00;3.55;;;8.80;99.90;;;;;;5067965;28;20930;-36
2023/11/16 07:04:47;;;;;;;8.48;4.65;;;8.80;99.90;;;;;;5082544;28;20109;-36
2023/11/16 07:07:13;;;;;;;5.68;4.13;;;8.80;99.90;;;;;;5068897;28;20036;-38
2023/11/16 07:09:44;;;;;;;5.88;4.50;;;8.80;99.90;;;;;;5080787;28;20050;-37
2023/11/16 07:12:09;;;;;;;7.35;4.63;;;8.80;99.90;;;;;;5071228;28;20032;-36
2023/11/16 07:14:35;;;;;;;7.80;4.57;;;8.80;99.90;;;;;;5078571;28;20028;-36
2023/11/16 07:17:01;;;;;;;7.57;4.75;;;8.80;99.90;;;;;;5073708;28;20028;-37
2023/11/16 07:19:26;;;;;;;6.68;4.68;;;8.80;99.90;;;;;;5076203;28;20024;-37
2023/11/16 07:21:52;;;;;;;9.98;5.72;;;8.90;99.90;;;;;;5076810;28;20021;-37
2023/11/16 07:24:17;;;;;;;6.45;5.30;;;8.90;99.90;;;;;;5073419;28;20043;-37
2023/11/16 07:26:43;;;;;;;7.65;5.82;;;8.90;99.90;;;;;;5079679;28;20039;-36
2023/11/16 07:29:09;;;;;;;7.97;5.63;;;8.90;99.90;;;;;;5070607;28;20020;-37
2023/11/16 07:31:34;;;;;;;7.80;6.05;;;9.00;99.90;;;;;;5080348;28;20029;-38
2023/11/16 07:34:01;;;;;;;7.45;5.95;;;9.00;99.90;;;;;;5071484;28;20032;-46
2023/11/16 07:36:27;;;;;;;7.88;5.78;;;9.00;99.90;;;;;;5081030;28;20027;-37
2023/11/16 07:38:57;;;;;;;8.43;6.35;;;9.10;99.90;;;;;;5070033;28;20454;-37
2023/11/16 07:41:23;;;;;;;11.38;6.00;;;9.10;99.90;;;;;;5082168;28;20066;-37
2023/11/16 07:43:49;;;;;;;7.57;5.82;;;9.10;99.90;;;;;;5068766;28;20024;-36
2023/11/16 07:46:15;;;;;;;9.10;6.45;;;9.20;99.90;;;;;;5081745;28;20047;-36
2023/11/16 07:48:41;;;;;;;9.45;6.47;;;9.20;99.90;;;;;;5076307;28;20078;-38
2023/11/16 07:51:07;;;;;;;8.27;5.60;;;9.20;99.90;;;;;;5061299;28;20028;-38
2023/11/16 07:53:33;;;;;;;8.90;6.28;;;9.20;99.90;;;;;;5075406;28;20055;-38
2023/11/16 07:56:05;;;;;;;11.43;6.88;;;9.30;99.90;;;;;;5081294;28;20035;-38
2023/11/16 07:58:34;;;;;;;9.60;6.20;;;9.30;99.90;;;;;;5080239;28;20035;-37
2023/11/16 08:01:11;;;;;;;7.00;5.50;;;9.30;99.90;;;;;;5081481;28;20020;-38
2023/11/16 08:03:46;;;;;;;7.60;5.30;;;9.30;99.90;;;;;;5078801;28;20436;-38
2023/11/16 08:06:13;;;;;;;7.90;5.40;;;9.30;99.90;;;;;;5080803;28;20109;-37
2023/11/16 08:08:45;;;;;;;7.53;4.75;;;9.20;99.90;;;;;;5082585;28;20039;-37
2023/11/16 08:11:11;;;;;;;8.07;5.30;;;9.20;99.90;;;;;;5078524;28;20882;-37
2023/11/16 08:13:41;;;;;;;8.23;5.00;;;9.20;99.90;;;;;;5080018;28;20036;-38
2023/11/16 08:16:10;;;;;;;7.57;4.85;;;9.20;99.90;;;;;;5081713;28;20040;-39
2023/11/16 08:18:37;;;;;;;10.18;5.70;;;9.20;99.90;;;;;;5081229;28;20036;-35
2023/11/16 08:21:06;;;;;;;6.35;5.65;;;9.20;99.90;;;;;;5081577;28;20032;-37
2023/11/16 08:23:38;;;;;;;10.65;6.22;;;9.20;99.90;;;;;;5081232;28;20012;-38
2023/11/16 08:26:08;;;;;;;8.27;6.22;;;9.10;99.90;;;;;;5070331;28;20036;-37
2023/11/16 08:28:34;;;;;;;10.35;5.93;;;9.10;99.90;;;;;;5081156;28;20031;-37
2023/11/16 08:31:00;;;;;;;6.50;5.25;;;9.10;99.90;;;;;;5080626;28;20212;-37
2023/11/16 08:33:25;;;;;;;6.47;5.25;;;9.10;99.90;;;;;;5080793;28;20480;-37
2023/11/16 08:35:53;;;;;;;6.45;5.03;;;9.10;99.90;;;;;;5081744;28;20593;-36
2023/11/16 08:38:19;;;;;;;7.97;4.93;;;9.10;99.90;;;;;;5080407;28;20067;-36
2023/11/16 08:40:45;;;;;;;5.93;5.32;;;9.10;99.90;;;;;;5080343;28;20028;-36
2023/11/16 08:43:11;;;;;;;7.85;5.88;;;9.10;99.90;;;;;;5080835;28;20035;-36
2023/11/16 08:45:38;;;;;;;9.43;6.35;;;9.10;99.90;;;;;;5081069;28;20085;-37
2023/11/16 08:48:04;;;;;;;10.70;6.72;;;9.00;99.90;;;;;;5080762;28;20028;-36
2023/11/16 08:50:33;;;;;;;11.77;6.63;;;9.00;99.90;;;;;;5075615;28;20019;-37
2023/11/16 08:53:00;;;;;;;7.55;6.07;;;9.00;99.90;;;;;;5062791;28;20122;-37
2023/11/16 08:55:27;;;;;;;7.25;5.85;;;9.00;99.90;;;;;;5069146;28;20047;-37
2023/11/16 08:57:53;;;;;;;8.15;6.25;;;9.00;99.90;;;;;;5065650;28;20055;-46
2023/11/16 09:00:27;;;;;;;8.52;5.72;;;9.10;99.90;;;;;;5065580;28;20546;-37
2023/11/16 09:03:03;;;;;;;9.05;5.97;;;9.10;99.90;;;;;;5066054;28;20032;-37
2023/11/16 09:05:29;;;;;;;10.07;5.70;;;9.10;99.90;;;;;;5066433;28;20028;-36
2023/11/16 09:07:55;;;;;;;7.88;5.80;;;9.20;99.90;;;;;;5066692;28;20035;-37
2023/11/16 09:10:22;;;;;;;7.95;6.18;;;9.20;99.90;;;;;;5063771;28;20012;-37
2023/11/16 09:12:55;;;;;;;7.60;5.53;;;9.20;99.90;;;;;;5069931;28;20035;-45
2023/11/16 09:15:22;;;;;;;10.80;6.40;;;9.20;99.90;;;;;;5061372;28;20099;-36
2023/11/16 09:17:51;;;;;;;10.15;6.45;;;9.30;99.90;;;;;;5071668;28;20025;-36
2023/11/16 09:20:18;;;;;;;7.90;5.88;;;9.30;99.90;;;;;;5061538;28;20759;-36
2023/11/16 09:22:50;;;;;;;8.60;5.85;;;9.40;99.90;;;;;;5070963;28;20121;-36
2023/11/16 09:25:23;;;;;;;7.03;6.32;;;9.40;99.90;;;;;;5060888;28;20128;-35
2023/11/16 09:27:50;;;;;;;9.68;6.88;;;9.50;99.90;;;;;;5072439;28;20070;-36
2023/11/16 09:30:23;;;;;;;11.27;7.88;;;9.50;99.90;;;;;;5058398;28;20108;-36
2023/11/16 09:32:50;;;;;;;12.55;8.18;;;9.50;99.90;;;;;;5068012;28;20399;-37
2023/11/16 09:35:21;;;;;;;9.90;7.25;;;9.60;99.90;;;;;;5059517;28;20024;-37
2023/11/16 09:37:52;;;;;;;8.10;6.63;;;9.60;99.90;;;;;;5072586;28;20025;-36
2023/11/16 09:40:24;;;;;;;8.25;7.05;;;9.60;99.90;;;;;;5060003;28;20028;-37
2023/11/16 09:43:00;;;;;;;8.13;6.22;;;9.70;99.90;;;;;;5072942;28;20098;-37
2023/11/16 09:45:27;;;;;;;8.40;6.95;;;9.70;99.90;;;;;;5060240;28;20379;-35
2023/11/16 09:48:12;;;;;;;7.70;6.40;;;9.80;99.90;;;;;;5072154;28;20032;-37
2023/11/16 09:50:42;;;;;;;10.38;7.35;;;9.80;99.90;;;;;;5059490;28;20071;-36
2023/11/16 09:53:14;;;;;;;8.63;7.05;;;9.90;99.90;;;;;;5059616;28;20123;-36
2023/11/16 09:55:44;;;;;;;9.82;6.97;;;9.90;99.90;;;;;;5060071;28;20220;-36
2023/11/16 09:58:17;;;;;;;8.90;7.63;;;9.90;99.90;;;;;;5059298;28;20851;-36
2023/11/16 10:00:48;;;;;;;10.32;8.65;;;9.90;99.90;;;;;;5061039;28;20028;-36
2023/11/16 10:03:22;;;;;;;9.45;7.88;;;9.90;99.90;;;;;;5063432;28;20028;-39
2023/11/16 10:05:47;;;;;;;7.97;7.00;;;10.00;99.90;;;;;;5063947;28;20787;-37
2023/11/16 10:08:16;;;;;;;8.63;7.50;;;10.00;99.90;;;;;;5062903;28;20040;-38
2023/11/16 10:10:58;;;;;;;14.07;7.80;;;10.00;99.90;;;;;;5063477;28;20016;-37
2023/11/16 10:13:24;;;;;;;12.07;8.43;;;10.00;99.90;;;;;;5063831;28;20060;-38
2023/11/16 10:15:59;;;;;;;12.02;8.70;;;10.00;99.90;;;;;;5063291;28;20070;-37
2023/11/16 10:18:25;;;;;;;12.95;9.35;;;10.00;99.90;;;;;;5062404;28;20055;-37
2023/11/16 10:20:51;;;;;;;13.25;9.27;;;10.00;99.90;;;;;;5063651;28;20020;-36
2023/11/16 10:23:23;;;;;;;11.30;8.73;;;10.00;99.90;;;;;;5063331;28;20555;-37
2023/11/16 10:25:49;;;;;;;12.13;8.30;;;10.00;99.90;;;;;;5062565;28;20035;-36
2023/11/16 10:28:15;;;;;;;14.65;9.57;;;9.90;99.90;;;;;;5062074;28;20025;-35
2023/11/16 10:30:46;;;;;;;10.27;8.10;;;10.00;99.90;;;;;;5062986;28;20040;-35
2023/11/16 10:33:15;;;;;;;10.38;7.43;;;10.00;99.90;;;;;;5061941;28;20503;-37
2023/11/16 10:35:46;;;;;;;12.40;8.23;;;10.00;99.90;;;;;;5063533;28;20433;-37
2023/11/16 10:38:15;;;;;;;8.40;6.82;;;10.00;99.90;;;;;;5062778;28;20021;-36
2023/11/16 10:40:46;;;;;;;7.53;6.43;;;10.00;99.90;;;;;;5062533;28;20036;-38
2023/11/16 10:43:25;;;;;;;8.63;6.47;;;10.10;99.90;;;;;;5062031;28;20518;-37
2023/11/16 10:46:00;;;;;;;9.38;6.78;;;10.00;99.90;;;;;;5053426;28;20033;-36
2023/11/16 10:48:26;;;;;;;9.95;7.10;;;10.10;99.90;;;;;;5067417;28;20048;-35
2023/11/16 10:50:55;;;;;;;9.80;7.40;;;10.00;99.90;;;;;;5083554;28;20027;-36
2023/11/16 10:53:23;;;;;;;9.35;6.82;;;10.00;99.90;;;;;;5081957;28;20016;-36
2023/11/16 10:55:50;;;;;;;10.65;6.70;;;10.00;99.90;;;;;;5083547;28;20028;-36
2023/11/16 10:58:20;;;;;;;11.43;7.15;;;10.00;99.90;;;;;;5082708;28;20028;-36
2023/11/16 11:00:51;;;;;;;10.98;7.40;;;10.00;99.90;;;;;;5079563;28;20043;-36
2023/11/16 11:03:18;;;;;;;10.93;7.00;;;10.00;99.90;;;;;;5082500;28;20020;-38
2023/11/16 11:05:52;;;;;;;8.98;6.75;;;10.00;99.90;;;;;;5082010;28;20028;-37
2023/11/16 11:08:19;;;;;;;10.00;6.53;;;10.00;99.90;;;;;;5082259;28;20062;-36
2023/11/16 11:10:52;;;;;;;9.63;6.80;;;10.00;99.90;;;;;;5083217;28;20445;-37
2023/11/16 11:13:28;;;;;;;11.10;7.78;;;10.00;99.90;;;;;;5081819;28;20526;-36
2023/11/16 11:16:02;;;;;;;12.18;7.55;;;10.00;99.90;;;;;;5082513;28;20024;-36
2023/11/16 11:18:28;;;;;;;12.35;6.97;;;10.00;99.90;;;;;;5082514;28;20459;-36
2023/11/16 11:21:07;;;;;;;10.65;7.65;;;10.00;99.90;;;;;;5082415;28;20020;-35
2023/11/16 11:23:33;;;;;;;10.68;7.68;;;10.00;99.90;;;;;;5083112;28;20028;-36
2023/11/16 11:26:04;;;;;;;11.27;7.70;;;9.90;99.90;;;;;;5081751;28;20052;-36
2023/11/16 11:28:30;;;;;;;8.77;6.72;;;9.90;99.90;;;;;;5082067;28;20020;-37
2023/11/16 11:30:59;;;;;;;8.60;6.15;;;9.90;99.90;;;;;;5082639;28;20028;-37
2023/11/16 11:33:33;;;;;;;7.50;6.07;;;9.90;99.90;;;;;;5082522;28;20031;-36
2023/11/16 11:35:59;;;;;;;10.38;6.50;;;9.80;99.90;;;;;;5081849;28;20036;-36
2023/11/16 11:38:29;;;;;;;8.93;5.55;;;9.80;99.90;;;;;;5082299;28;20521;-36
2023/11/16 11:41:06;;;;;;;11.50;6.13;;;9.80;99.90;;;;;;5082116;28;20656;-37
2023/11/16 11:43:33;;;;;;;8.77;5.85;;;9.80;99.90;;;;;;5081756;28;20434;-36
2023/11/16 11:45:59;;;;;;;10.13;5.53;;;9.70;99.90;;;;;;5082406;28;20119;-36
2023/11/16 11:48:26;;;;;;;8.35;5.88;;;9.70;99.90;;;;;;5080654;28;20048;-36
2023/11/16 11:50:57;;;;;;;7.10;5.75;;;9.70;99.90;;;;;;5075396;28;20025;-37
2023/11/16 11:53:31;;;;;;;10.18;6.15;;;9.70;99.90;;;;;;5072909;28;20020;-36
2023/11/16 11:55:57;;;;;;;8.02;5.35;;;9.80;99.90;;;;;;5075940;28;20020;-44
2023/11/16 11:58:24;;;;;;;8.35;5.43;;;9.80;99.90;;;;;;5071525;28;20478;-37
2023/11/16 12:00:51;;;;;;;6.28;5.30;;;9.90;99.90;;;;;;5079105;28;20873;-37
2023/11/16 12:03:20;;;;;;;7.80;5.53;;;9.90;99.90;;;;;;5070679;28;20046;-37
2023/11/16 12:06:03;;;;;;;7.93;5.43;;;10.00;99.90;;;;;;5081015;28;20024;-37
2023/11/16 12:08:43;;;;;;;7.22;5.35;;;10.00;99.90;;;;;;5060497;28;20052;-37
2023/11/16 12:11:10;;;;;;;6.75;5.40;;;10.10;99.90;;;;;;5079843;28;20016;-37
2023/11/16 12:13:40;;;;;;;7.35;5.15;;;10.10;99.90;;;;;;5059784;28;20110;-38
2023/11/16 12:16:07;;;;;;;7.90;5.20;;;10.10;99.90;;;;;;5080776;28;20036;-37
2023/11/16 12:18:37;;;;;;;6.55;5.13;;;10.00;99.90;;;;;;5069957;28;20024;-37
2023/11/16 12:21:15;;;;;;;7.63;5.68;;;10.00;99.90;;;;;;5080237;28;20638;-37
2023/11/16 12:23:47;;;;;;;6.28;5.13;;;10.00;99.90;;;;;;5070718;28;20318;-37
2023/11/16 12:26:16;;;;;;;7.60;4.78;;;10.00;99.90;;;;;;5061409;28;20036;-37
2023/11/16 12:28:45;;;;;;;6.10;4.80;;;10.00;99.90;;;;;;5069326;28;20032;-37
2023/11/16 12:31:16;;;;;;;8.50;5.15;;;10.00;99.90;;;;;;5060406;28;20017;-38
2023/11/16 12:33:42;;;;;;;5.93;5.10;;;10.00;99.90;;;;;;5068209;28;20414;-37
2023/11/16 12:36:08;;;;;;;7.70;5.10;;;10.00;99.90;;;;;;5082070;28;20020;-38
2023/11/16 12:38:34;;;;;;;6.75;4.70;;;10.00;99.90;;;;;;5068000;28;20036;-36
2023/11/16 12:40:59;;;;;;;7.75;5.80;;;9.90;99.90;;;;;;5081800;28;20055;-37
2023/11/16 12:43:28;;;;;;;9.45;6.13;;;9.90;99.90;;;;;;5069498;28;20070;-37
2023/11/16 12:45:54;;;;;;;7.82;5.97;;;9.90;99.90;;;;;;5080118;28;20089;-37
2023/11/16 12:48:23;;;;;;;8.88;6.03;;;9.80;99.90;;;;;;5075070;28;20122;-38
2023/11/16 12:50:49;;;;;;;8.68;5.50;;;9.80;99.90;;;;;;5081151;28;20411;-37
2023/11/16 12:53:15;;;;;;;7.55;5.35;;;9.80;99.90;;;;;;5080408;28;20127;-38
2023/11/16 12:55:40;;;;;;;6.88;5.25;;;9.70;99.90;;;;;;5080875;28;20085;-37
2023/11/16 12:58:06;;;;;;;7.68;5.43;;;9.70;99.90;;;;;;5080726;28;20035;-35